createdAt,value
2019-01-05T00:00:42.613Z,34.78
2019-01-05T00:02:20.055Z,36.15
2019-01-05T00:03:42.928Z,32.73
2019-01-05T00:05:12.869Z,34.33
2019-01-05T00:08:02.756Z,33.30
2019-01-05T00:09:45.444Z,34.10
2019-01-05T00:11:30.321Z,33.65
2019-01-05T00:12:57.951Z,31.87
2019-01-05T00:14:36.900Z,33.73
2019-01-05T00:16:19.047Z,34.43
2019-01-05T00:19:23.266Z,35.75
2019-01-05T00:21:07.037Z,35.28
2019-01-05T00:22:29.225Z,33.83
2019-01-05T00:24:08.316Z,34.45
2019-01-05T00:25:40.124Z,33.73
2019-01-05T00:27:09.730Z,35.92
2019-01-05T00:28:48.783Z,35.83
2019-01-05T00:30:21.818Z,36.17
2019-01-05T00:31:45.329Z,37.30
2019-01-05T00:33:19.979Z,33.78
2019-01-05T00:35:01.335Z,33.38
2019-01-05T00:36:54.383Z,34.65
2019-01-05T00:38:17.604Z,33.90
2019-01-05T00:39:46.364Z,32.80
2019-01-05T00:41:10.989Z,33.78
2019-01-05T00:42:54.540Z,34.00
2019-01-05T00:44:15.327Z,34.48
2019-01-05T00:45:46.439Z,31.45
2019-01-05T00:49:17.115Z,34.60
2019-01-05T00:50:53.679Z,34.10
2019-01-05T00:52:28.781Z,34.23
2019-01-05T00:54:04.771Z,32.78
2019-01-05T00:55:43.821Z,34.08
2019-01-05T00:57:19.894Z,33.55
2019-01-05T01:01:06.040Z,34.45
2019-01-05T01:04:24.125Z,30.65
2019-01-05T01:06:03.056Z,33.95
2019-01-05T01:07:52.686Z,33.63
2019-01-05T01:09:14.009Z,31.57
2019-01-05T01:12:50.207Z,32.23
2019-01-05T01:14:26.062Z,32.40
2019-01-05T01:16:01.205Z,33.15
2019-01-05T01:18:56.366Z,31.12
2019-01-05T01:20:32.074Z,31.37
2019-01-05T01:22:08.642Z,32.60
2019-01-05T01:23:45.517Z,32.75
2019-01-05T01:26:05.607Z,31.45
2019-01-05T01:27:07.342Z,32.60
2019-01-05T01:28:43.883Z,30.05
2019-01-05T01:30:19.498Z,31.55
2019-01-05T01:31:55.324Z,31.80
2019-01-05T01:35:37.891Z,31.35
2019-01-05T01:36:50.676Z,31.25
2019-01-05T01:40:39.694Z,30.52
2019-01-05T01:42:14.836Z,32.13
2019-01-05T01:43:50.622Z,27.48
2019-01-05T01:45:26.147Z,29.80
2019-01-05T01:47:15.897Z,30.88
2019-01-05T01:50:32.063Z,27.77
2019-01-05T01:52:12.197Z,31.62
2019-01-05T01:53:38.977Z,28.95
2019-01-05T01:55:02.078Z,29.30
2019-01-05T01:56:34.285Z,28.70
2019-01-05T01:58:06.690Z,30.20
2019-01-05T01:59:35.323Z,28.55
2019-01-05T02:00:52.535Z,27.42
2019-01-05T02:02:26.878Z,27.22
2019-01-05T02:03:52.376Z,28.52
2019-01-05T02:05:26.619Z,27.90
2019-01-05T02:08:42.934Z,25.40
2019-01-05T02:10:22.465Z,27.62
2019-01-05T02:11:57.439Z,26.42
2019-01-05T02:13:32.590Z,26.10
2019-01-05T02:15:07.507Z,25.02
2019-01-05T02:16:42.444Z,24.40
2019-01-05T02:18:34.388Z,25.27
2019-01-05T02:21:53.113Z,26.25
2019-01-05T02:25:22.192Z,23.42
2019-01-05T02:27:00.470Z,24.60
2019-01-05T02:28:50.493Z,26.00
2019-01-05T02:30:27.953Z,27.15
2019-01-05T02:31:56.078Z,25.62
2019-01-05T02:33:31.178Z,25.50
2019-01-05T02:35:16.572Z,25.02
2019-01-05T02:36:50.966Z,24.75
2019-01-05T02:38:20.041Z,23.57
2019-01-05T02:39:55.633Z,24.20
2019-01-05T02:42:19.295Z,21.70
2019-01-05T02:44:32.890Z,20.43
2019-01-05T02:45:58.056Z,19.92
2019-01-05T02:47:36.280Z,22.27
2019-01-05T02:49:28.155Z,21.25
2019-01-05T02:50:50.536Z,20.95
2019-01-05T02:52:25.699Z,22.37
2019-01-05T02:54:08.766Z,21.65
2019-01-05T02:55:33.984Z,18.98
2019-01-05T02:57:09.158Z,20.77
2019-01-05T02:58:44.272Z,21.82
2019-01-05T03:00:19.408Z,19.20
2019-01-05T03:02:00.565Z,19.30
2019-01-05T03:03:35.481Z,20.50
2019-01-05T03:05:12.807Z,20.40
2019-01-05T03:06:46.740Z,18.17
2019-01-05T03:10:05.397Z,19.27
2019-01-05T03:11:48.145Z,17.90
2019-01-05T03:13:13.120Z,16.60
2019-01-05T03:14:47.908Z,15.50
2019-01-05T03:16:23.109Z,17.52
2019-01-05T03:17:58.473Z,16.48
2019-01-05T03:19:53.644Z,15.88
2019-01-05T03:24:50.022Z,14.95
2019-01-05T03:26:25.173Z,16.20
2019-01-05T03:28:00.270Z,15.55
2019-01-05T03:29:45.852Z,14.38
2019-01-05T03:31:10.705Z,16.42
2019-01-05T03:32:46.310Z,15.60
2019-01-05T03:34:21.275Z,15.83
2019-01-05T03:36:10.875Z,15.15
2019-01-05T03:37:36.285Z,17.15
2019-01-05T03:39:11.420Z,15.05
2019-01-05T03:41:00.865Z,16.12
2019-01-05T03:42:46.043Z,15.70
2019-01-05T03:46:10.095Z,16.12
2019-01-05T03:47:45.588Z,16.80
2019-01-05T03:49:20.833Z,15.95
2019-01-05T03:51:28.777Z,14.95
2019-01-05T03:53:09.893Z,16.32
2019-01-05T03:57:18.935Z,15.25
2019-01-05T03:59:23.598Z,15.00
2019-01-05T04:01:04.917Z,16.40
2019-01-05T04:02:42.777Z,14.25
2019-01-05T04:06:11.052Z,13.80
2019-01-05T04:07:51.857Z,14.33
2019-01-05T04:09:26.982Z,14.78
2019-01-05T04:11:08.323Z,14.45
2019-01-05T04:12:43.596Z,13.62
2019-01-05T04:16:22.185Z,15.15
2019-01-05T04:18:21.786Z,13.32
2019-01-05T04:20:23.492Z,12.65
2019-01-05T04:22:25.249Z,12.78
2019-01-05T04:24:26.907Z,13.18
2019-01-05T04:26:02.435Z,14.45
2019-01-05T04:29:25.427Z,13.40
2019-01-05T04:31:03.149Z,13.78
2019-01-05T04:32:38.008Z,14.20
2019-01-05T04:34:42.805Z,13.13
2019-01-05T04:36:44.521Z,13.88
2019-01-05T04:38:20.278Z,13.70
2019-01-05T04:40:08.071Z,14.73
2019-01-05T04:41:35.295Z,14.18
2019-01-05T04:45:01.072Z,14.83
2019-01-05T04:46:55.923Z,13.60
2019-01-05T04:48:57.737Z,12.20
2019-01-05T04:53:13.930Z,12.03
2019-01-05T04:54:49.005Z,12.47
2019-01-05T04:56:50.704Z,12.30
2019-01-05T04:58:49.883Z,12.55
2019-01-05T05:02:48.610Z,11.68
2019-01-05T05:04:50.308Z,12.23
2019-01-05T05:09:04.081Z,13.15
2019-01-05T05:10:51.186Z,13.25
2019-01-05T05:12:42.960Z,12.13
2019-01-05T05:14:18.397Z,11.30
2019-01-05T05:16:20.234Z,12.60
2019-01-05T05:18:24.671Z,11.88
2019-01-05T05:20:29.494Z,14.35
2019-01-05T05:22:34.241Z,11.30
2019-01-05T05:24:35.970Z,11.50
2019-01-05T05:26:11.275Z,11.85
2019-01-05T05:28:00.320Z,11.50
2019-01-05T05:29:23.577Z,12.80
2019-01-05T05:31:04.635Z,11.88
2019-01-05T05:32:54.429Z,9.73
2019-01-05T05:34:19.285Z,9.95
2019-01-05T05:35:48.387Z,9.98
2019-01-05T05:37:23.727Z,11.70
2019-01-05T05:41:05.277Z,11.40
2019-01-05T05:42:29.550Z,10.25
2019-01-05T05:44:04.447Z,11.08
2019-01-05T05:45:39.711Z,10.93
2019-01-05T05:47:29.016Z,9.98
2019-01-05T05:48:51.993Z,9.38
2019-01-05T05:50:27.016Z,8.25
2019-01-05T05:52:19.047Z,9.83
2019-01-05T05:53:42.102Z,9.65
2019-01-05T05:55:29.654Z,9.00
2019-01-05T05:56:52.444Z,9.93
2019-01-05T05:58:27.665Z,8.53
2019-01-05T06:00:02.641Z,9.93
2019-01-05T06:05:26.637Z,9.90
2019-01-05T06:07:02.388Z,9.73
2019-01-05T06:08:37.397Z,10.53
2019-01-05T06:12:05.361Z,10.55
2019-01-05T06:13:39.176Z,8.50
2019-01-05T06:15:54.850Z,9.70
2019-01-05T06:17:56.825Z,9.95
2019-01-05T06:19:31.584Z,9.55
2019-01-05T06:21:20.812Z,8.75
2019-01-05T06:22:44.096Z,9.18
2019-01-05T06:24:19.005Z,8.53
2019-01-05T06:25:53.855Z,8.65
2019-01-05T06:27:29.618Z,8.15
2019-01-05T06:30:59.669Z,9.30
2019-01-05T06:32:34.691Z,9.90
2019-01-05T06:36:02.090Z,10.53
2019-01-05T06:39:24.006Z,10.15
2019-01-05T06:43:09.872Z,9.70
2019-01-05T06:44:33.957Z,9.78
2019-01-05T06:46:09.200Z,10.80
2019-01-05T06:47:58.218Z,10.08
2019-01-05T06:49:21.373Z,11.43
2019-01-05T06:50:56.511Z,9.60
2019-01-05T06:52:31.625Z,10.10
2019-01-05T06:54:06.797Z,10.85
2019-01-05T06:55:41.902Z,10.20
2019-01-05T06:57:17.086Z,9.30
2019-01-05T06:59:06.736Z,9.55
2019-01-05T07:04:37.878Z,9.53
2019-01-05T07:06:00.811Z,9.30
2019-01-05T07:07:36.289Z,9.33
2019-01-05T07:09:11.177Z,9.73
2019-01-05T07:11:00.804Z,9.65
2019-01-05T07:12:25.989Z,9.65
2019-01-05T07:14:19.629Z,9.65
2019-01-05T07:15:45.039Z,8.85
2019-01-05T07:17:33.067Z,9.75
2019-01-05T07:18:55.769Z,9.08
2019-01-05T07:20:31.747Z,8.00
2019-01-05T07:22:24.449Z,8.95
2019-01-05T07:23:59.689Z,7.70
2019-01-05T07:25:24.788Z,7.90
2019-01-05T07:27:21.029Z,7.58
2019-01-05T07:28:40.419Z,7.60
2019-01-05T07:32:06.591Z,6.70
2019-01-05T07:33:42.778Z,7.20
2019-01-05T07:35:18.711Z,5.85
2019-01-05T07:36:53.624Z,7.30
2019-01-05T07:38:42.589Z,6.20
2019-01-05T07:40:11.506Z,5.65
2019-01-05T07:41:58.369Z,5.53
2019-01-05T07:43:38.298Z,4.50
2019-01-05T07:45:03.801Z,5.60
2019-01-05T07:46:38.963Z,4.20
2019-01-05T07:50:34.067Z,4.53
2019-01-05T07:51:56.865Z,4.47
2019-01-05T07:53:32.283Z,4.60
2019-01-05T07:55:21.785Z,3.33
2019-01-05T07:56:45.380Z,3.98
2019-01-05T08:02:16.261Z,3.60
2019-01-05T08:04:08.071Z,3.30
2019-01-05T08:05:33.946Z,4.75
2019-01-05T08:10:55.033Z,3.65
2019-01-05T08:12:30.346Z,3.37
2019-01-05T08:14:05.616Z,4.65
2019-01-05T08:15:42.551Z,3.52
2019-01-05T08:17:17.889Z,3.25
2019-01-05T08:18:54.217Z,4.72
2019-01-05T08:20:29.664Z,4.75
2019-01-05T08:22:04.797Z,3.00
2019-01-05T08:23:40.391Z,3.80
2019-01-05T08:25:17.014Z,3.35
2019-01-05T08:27:12.248Z,3.12
2019-01-05T08:29:19.652Z,3.40
2019-01-05T08:31:21.318Z,4.00
2019-01-05T08:33:11.070Z,3.33
2019-01-05T08:34:34.279Z,3.47
2019-01-05T08:36:24.317Z,4.75
2019-01-05T08:38:15.928Z,5.15
2019-01-05T08:40:31.686Z,4.35
2019-01-05T08:41:54.180Z,3.80
2019-01-05T08:43:45.729Z,3.92
2019-01-05T08:45:09.684Z,3.95
2019-01-05T08:46:44.771Z,4.35
2019-01-05T08:48:23.023Z,4.12
2019-01-05T08:52:01.741Z,5.62
2019-01-05T08:54:03.726Z,5.65
2019-01-05T08:55:39.824Z,5.12
2019-01-05T08:56:54.129Z,5.22
2019-01-05T09:00:07.129Z,5.20
2019-01-05T09:01:42.789Z,6.20
2019-01-05T09:03:18.329Z,5.40
2019-01-05T09:04:54.059Z,4.80
2019-01-05T09:06:43.344Z,5.28
2019-01-05T09:10:00.260Z,5.12
2019-01-05T09:11:25.797Z,5.05
2019-01-05T09:13:00.978Z,4.12
2019-01-05T09:16:33.129Z,4.40
2019-01-05T09:18:09.057Z,4.90
2019-01-05T09:19:44.302Z,5.55
2019-01-05T09:21:22.570Z,6.60
2019-01-05T09:22:57.648Z,7.80
2019-01-05T09:24:49.267Z,7.53
2019-01-05T09:26:18.348Z,5.75
2019-01-05T09:27:56.733Z,7.85
2019-01-05T09:29:57.256Z,6.10
2019-01-05T09:31:43.298Z,4.67
2019-01-05T09:33:08.558Z,3.65
2019-01-05T09:34:45.107Z,4.03
2019-01-05T09:36:24.937Z,3.85
2019-01-05T09:38:09.317Z,4.00
2019-01-05T09:39:47.091Z,3.95
2019-01-05T09:41:22.642Z,5.08
2019-01-05T09:44:53.897Z,4.33
2019-01-05T09:46:31.786Z,3.65
2019-01-05T09:48:06.971Z,4.35
2019-01-05T09:49:42.110Z,3.85
2019-01-05T09:51:17.479Z,3.50
2019-01-05T09:52:52.736Z,4.00
2019-01-05T09:54:28.373Z,3.52
2019-01-05T09:56:03.696Z,4.37
2019-01-05T09:57:39.227Z,6.08
2019-01-05T09:59:34.059Z,4.78
2019-01-05T10:00:57.164Z,4.67
2019-01-05T10:02:47.203Z,3.60
2019-01-05T10:04:31.869Z,4.65
2019-01-05T10:05:55.263Z,3.55
2019-01-05T10:07:30.224Z,3.42
2019-01-05T10:09:19.655Z,3.55
2019-01-05T10:10:38.934Z,4.65
2019-01-05T10:14:55.616Z,3.80
2019-01-05T10:16:42.840Z,3.37
2019-01-05T10:21:55.172Z,3.75
2019-01-05T10:23:57.258Z,3.40
2019-01-05T10:25:32.314Z,3.47
2019-01-05T10:27:07.375Z,3.05
2019-01-05T10:28:43.857Z,3.50
2019-01-05T10:30:21.949Z,3.75
2019-01-05T10:32:11.767Z,4.05
2019-01-05T10:33:51.733Z,3.45
2019-01-05T10:35:17.979Z,4.45
2019-01-05T10:38:50.195Z,3.95
2019-01-05T10:40:51.969Z,3.30
2019-01-05T10:42:45.537Z,4.22
2019-01-05T10:44:10.016Z,4.15
2019-01-05T10:45:41.821Z,3.95
2019-01-05T10:47:34.707Z,3.35
2019-01-05T10:49:13.728Z,3.30
2019-01-05T10:50:42.661Z,3.35
2019-01-05T10:56:35.711Z,3.77
2019-01-05T10:58:04.880Z,3.80
2019-01-05T10:59:43.288Z,4.00
2019-01-05T11:01:17.964Z,3.80
2019-01-05T11:02:53.297Z,3.80
2019-01-05T11:04:28.384Z,3.77
2019-01-05T11:06:03.344Z,3.10
2019-01-05T11:07:38.745Z,4.65
2019-01-05T11:09:13.777Z,6.37
2019-01-05T11:11:06.141Z,5.08
2019-01-05T11:12:29.285Z,5.22
2019-01-05T11:14:05.669Z,6.25
2019-01-05T11:15:49.001Z,7.65
2019-01-05T11:17:25.797Z,5.90
2019-01-05T11:19:00.915Z,6.67
2019-01-05T11:22:36.310Z,4.53
2019-01-05T11:26:11.343Z,4.28
2019-01-05T11:29:13.439Z,3.87
2019-01-05T11:30:48.173Z,5.10
2019-01-05T11:32:23.200Z,4.70
2019-01-05T11:36:20.053Z,5.80
2019-01-05T11:38:37.661Z,4.78
2019-01-05T11:40:16.929Z,4.97
2019-01-05T11:41:58.262Z,5.05
2019-01-05T11:43:51.665Z,4.72
2019-01-05T11:45:11.185Z,5.25
2019-01-05T11:46:46.994Z,4.58
2019-01-05T11:48:36.857Z,5.50
2019-01-05T11:51:33.593Z,4.45
2019-01-05T11:52:37.129Z,4.28
2019-01-05T11:54:12.324Z,4.65
2019-01-05T11:57:37.265Z,4.33
2019-01-05T11:59:16.055Z,3.72
2019-01-05T12:00:51.362Z,4.15
2019-01-05T12:02:26.398Z,5.20
2019-01-05T12:04:16.451Z,4.78
2019-01-05T12:05:41.715Z,4.50
2019-01-05T12:07:16.641Z,4.83
2019-01-05T12:08:51.807Z,3.80
2019-01-05T12:10:26.832Z,4.50
2019-01-05T12:12:02.193Z,3.90
2019-01-05T12:13:37.241Z,4.85
2019-01-05T12:15:13.426Z,4.97
2019-01-05T12:16:26.564Z,4.50
2019-01-05T12:18:28.235Z,3.70
2019-01-05T12:20:03.942Z,4.15
2019-01-05T12:21:39.326Z,4.75
2019-01-05T12:23:14.251Z,4.35
2019-01-05T12:24:49.480Z,4.12
2019-01-05T12:26:53.499Z,4.25
2019-01-05T12:28:18.383Z,3.60
2019-01-05T12:30:07.174Z,4.97
2019-01-05T12:31:30.703Z,3.95
2019-01-05T12:33:32.719Z,3.50
2019-01-05T12:35:34.451Z,4.00
2019-01-05T12:37:36.420Z,4.58
2019-01-05T12:39:31.053Z,3.70
2019-01-05T12:40:56.953Z,3.80
2019-01-05T12:42:32.638Z,5.25
2019-01-05T12:45:57.636Z,5.22
2019-01-05T12:47:55.150Z,4.22
2019-01-05T12:50:01.373Z,3.60
2019-01-05T12:52:02.139Z,3.12
2019-01-05T12:54:15.710Z,3.70
2019-01-05T12:56:39.090Z,4.53
2019-01-05T12:59:07.284Z,8.73
2019-01-05T13:01:05.307Z,7.90
2019-01-05T13:02:59.658Z,5.83
2019-01-05T13:05:24.334Z,5.55
2019-01-05T13:07:44.666Z,4.92
2019-01-05T13:10:00.258Z,4.90
2019-01-05T13:12:19.030Z,6.25
2019-01-05T13:14:29.822Z,6.70
2019-01-05T13:16:54.317Z,8.55
2019-01-05T13:19:14.745Z,3.55
2019-01-05T13:21:37.636Z,6.45
2019-01-05T13:23:42.393Z,4.95
2019-01-05T13:25:50.783Z,10.32
2019-01-05T13:28:05.684Z,6.60
2019-01-05T13:30:29.752Z,8.50
2019-01-05T13:32:51.852Z,14.40
2019-01-05T13:34:41.145Z,5.97
2019-01-05T13:36:41.309Z,4.53
2019-01-05T13:38:47.438Z,4.95
2019-01-05T13:40:59.704Z,6.25
2019-01-05T13:43:14.421Z,10.48
2019-01-05T13:45:35.416Z,6.20
2019-01-05T13:47:43.554Z,4.55
2019-01-05T13:49:43.063Z,4.47
2019-01-05T13:51:53.178Z,2.95
2019-01-05T13:53:43.860Z,3.30
2019-01-05T13:55:21.272Z,4.40
2019-01-05T13:56:46.887Z,4.30
2019-01-05T13:58:15.929Z,4.00
2019-01-05T13:59:38.503Z,4.00
2019-01-05T14:01:09.187Z,3.95
2019-01-05T14:02:34.350Z,4.22
2019-01-05T14:04:01.267Z,3.80
2019-01-05T14:05:31.826Z,3.12
2019-01-05T14:07:06.279Z,3.50
2019-01-05T14:08:28.847Z,3.50
2019-01-05T14:10:01.626Z,3.20
2019-01-05T14:11:35.118Z,3.70
2019-01-05T14:13:05.228Z,3.65
2019-01-05T14:14:27.603Z,3.05
2019-01-05T14:15:59.396Z,3.75
2019-01-05T14:17:24.734Z,2.62
2019-01-05T14:18:48.740Z,3.17
2019-01-05T14:20:27.783Z,2.70
2019-01-05T14:21:52.168Z,3.17
2019-01-05T14:23:16.119Z,8.90
2019-01-05T14:24:42.987Z,3.70
2019-01-05T14:26:09.475Z,28.27
2019-01-05T14:27:40.237Z,22.10
2019-01-05T14:29:04.822Z,7.15
2019-01-05T14:30:44.199Z,5.62
2019-01-05T14:32:23.067Z,16.32
2019-01-05T14:33:45.623Z,12.65
2019-01-05T14:35:12.322Z,10.03
2019-01-05T14:36:48.375Z,6.00
2019-01-05T14:38:18.263Z,9.65
2019-01-05T14:39:41.285Z,9.15
2019-01-05T14:41:14.737Z,5.60
2019-01-05T14:42:39.084Z,6.00
2019-01-05T14:44:05.808Z,2.98
2019-01-05T14:45:42.101Z,3.52
2019-01-05T14:47:04.682Z,3.27
2019-01-05T14:48:27.011Z,4.45
2019-01-05T14:49:49.881Z,4.00
2019-01-05T14:51:13.028Z,4.87
2019-01-05T14:52:35.859Z,5.25
2019-01-05T14:53:59.859Z,3.45
2019-01-05T14:55:39.363Z,4.40
2019-01-05T14:57:18.831Z,4.00
2019-01-05T14:58:54.581Z,5.90
2019-01-05T15:00:29.712Z,4.15
2019-01-05T15:01:59.883Z,7.00
2019-01-05T15:03:22.755Z,5.35
2019-01-05T15:04:47.079Z,5.55
2019-01-05T15:06:09.635Z,4.50
2019-01-05T15:07:23.993Z,4.28
2019-01-05T15:08:51.672Z,3.58
2019-01-05T15:10:23.134Z,3.85
2019-01-05T15:11:46.474Z,3.00
2019-01-05T15:13:22.677Z,5.05
2019-01-05T15:14:47.406Z,29.12
2019-01-05T15:16:18.186Z,18.42
2019-01-05T15:17:41.916Z,15.40
2019-01-05T15:19:04.642Z,18.75
2019-01-05T15:20:48.235Z,21.50
2019-01-05T15:22:11.444Z,9.13
2019-01-05T15:23:35.077Z,6.40
2019-01-05T15:25:15.525Z,3.85
2019-01-05T15:26:49.548Z,4.47
2019-01-05T15:28:13.869Z,4.12
2019-01-05T15:29:57.279Z,3.60
2019-01-05T15:31:24.517Z,5.78
2019-01-05T15:32:55.519Z,4.33
2019-01-05T15:34:20.272Z,4.87
2019-01-05T15:35:55.129Z,3.70
2019-01-05T15:37:20.570Z,4.37
2019-01-05T15:38:54.459Z,4.20
2019-01-05T15:40:21.363Z,3.65
2019-01-05T15:42:07.956Z,3.45
2019-01-05T15:43:31.950Z,4.33
2019-01-05T15:44:58.755Z,4.90
2019-01-05T15:46:21.300Z,3.70
2019-01-05T15:47:44.384Z,4.70
2019-01-05T15:49:26.389Z,3.40
2019-01-05T15:50:50.906Z,4.53
2019-01-05T15:52:19.899Z,3.47
2019-01-05T15:53:42.263Z,4.05
2019-01-05T15:55:06.411Z,4.60
2019-01-05T15:56:36.285Z,4.50
2019-01-05T15:57:59.287Z,4.70
2019-01-05T15:59:26.624Z,4.85
2019-01-05T16:00:48.815Z,6.10
2019-01-05T16:02:19.190Z,5.12
2019-01-05T16:03:50.390Z,4.15
2019-01-05T16:05:13.158Z,5.17
2019-01-05T16:06:45.803Z,4.72
2019-01-05T16:08:08.059Z,4.90
2019-01-05T16:09:30.943Z,5.10
2019-01-05T16:11:12.165Z,3.83
2019-01-05T16:12:35.726Z,4.55
2019-01-05T16:14:03.830Z,4.90
2019-01-05T16:15:40.022Z,4.72
2019-01-05T16:17:02.753Z,4.60
2019-01-05T16:18:40.204Z,4.78
2019-01-05T16:20:09.965Z,4.75
2019-01-05T16:21:45.142Z,4.45
2019-01-05T16:23:10.995Z,5.45
2019-01-05T16:24:35.796Z,5.40
2019-01-05T16:26:00.160Z,6.10
2019-01-05T16:27:55.884Z,4.72
2019-01-05T16:29:38.340Z,5.90
2019-01-05T16:31:22.434Z,6.35
2019-01-05T16:32:46.820Z,5.47
2019-01-05T16:34:17.103Z,6.75
2019-01-05T16:36:04.474Z,5.78
2019-01-05T16:37:38.634Z,5.92
2019-01-05T16:39:12.671Z,9.38
2019-01-05T16:40:37.875Z,12.15
2019-01-05T16:42:15.807Z,23.10
2019-01-05T16:43:48.337Z,43.95
2019-01-05T16:45:18.163Z,23.55
2019-01-05T16:46:38.113Z,17.45
2019-01-05T16:48:09.572Z,20.55
2019-01-05T16:49:54.440Z,19.20
2019-01-05T16:51:17.914Z,15.00
2019-01-05T16:52:58.521Z,11.68
2019-01-05T16:54:25.672Z,15.15
2019-01-05T16:55:54.052Z,21.60
2019-01-05T16:57:41.296Z,25.43
2019-01-05T16:59:04.886Z,17.23
2019-01-05T17:00:30.824Z,13.78
2019-01-05T17:02:01.113Z,29.70
2019-01-05T17:03:23.395Z,10.85
2019-01-05T17:04:57.931Z,10.13
2019-01-05T17:06:21.563Z,8.20
2019-01-05T17:07:49.049Z,8.15
2019-01-05T17:09:33.963Z,8.58
2019-01-05T17:11:03.497Z,7.90
2019-01-05T17:12:40.871Z,7.42
2019-01-05T17:14:24.959Z,8.58
2019-01-05T17:15:46.628Z,17.60
2019-01-05T17:17:29.742Z,44.67
2019-01-05T17:19:05.349Z,133.47
2019-01-05T17:22:07.490Z,57.08
2019-01-05T17:23:42.913Z,31.27
2019-01-05T17:25:18.466Z,16.82
2019-01-05T17:26:53.758Z,35.83
2019-01-05T17:28:30.303Z,34.65
2019-01-05T17:30:07.938Z,15.32
2019-01-05T17:31:43.779Z,9.33
2019-01-05T17:33:18.841Z,10.30
2019-01-05T17:34:53.893Z,9.30
2019-01-05T17:36:29.899Z,7.95
2019-01-05T17:38:08.858Z,8.60
2019-01-05T17:39:45.726Z,8.30
2019-01-05T17:41:30.765Z,7.50
2019-01-05T17:42:57.289Z,7.58
2019-01-05T17:44:29.676Z,7.78
2019-01-05T17:45:57.100Z,7.90
2019-01-05T17:47:18.268Z,7.00
2019-01-05T17:48:47.349Z,6.58
2019-01-05T17:50:09.971Z,8.25
2019-01-05T17:51:33.371Z,7.15
2019-01-05T17:52:58.627Z,6.75
2019-01-05T17:54:22.710Z,6.12
2019-01-05T17:55:47.292Z,6.40
2019-01-05T17:57:15.804Z,7.20
2019-01-05T17:58:57.917Z,7.08
2019-01-05T18:00:54.175Z,12.70
2019-01-05T18:02:27.966Z,15.20
2019-01-05T18:04:05.379Z,13.22
2019-01-05T18:05:32.828Z,16.95
2019-01-05T18:07:00.177Z,10.75
2019-01-05T18:08:30.258Z,18.90
2019-01-05T18:09:57.263Z,10.70
2019-01-05T18:11:19.322Z,10.25
2019-01-05T18:12:54.639Z,9.53
2019-01-05T18:14:17.426Z,12.85
2019-01-05T18:15:40.860Z,11.55
2019-01-05T18:17:17.974Z,29.85
2019-01-05T18:18:48.882Z,19.62
2019-01-05T18:20:16.821Z,8.38
2019-01-05T18:21:44.162Z,7.58
2019-01-05T18:23:21.112Z,6.55
2019-01-05T18:24:43.256Z,7.47
2019-01-05T18:26:15.698Z,6.20
2019-01-05T18:27:43.718Z,7.45
2019-01-05T18:29:08.552Z,10.75
2019-01-05T18:30:31.439Z,10.82
2019-01-05T18:31:54.450Z,9.23
2019-01-05T18:33:23.421Z,8.45
2019-01-05T18:34:58.516Z,7.47
2019-01-05T18:36:29.232Z,5.92
2019-01-05T18:38:00.388Z,7.00
2019-01-05T18:39:29.326Z,7.28
2019-01-05T18:41:02.305Z,6.72
2019-01-05T18:42:41.089Z,6.50
2019-01-05T18:44:04.422Z,13.95
2019-01-05T18:45:40.748Z,7.70
2019-01-05T18:47:06.867Z,11.08
2019-01-05T18:48:37.691Z,18.30
2019-01-05T18:50:22.836Z,15.98
2019-01-05T18:51:55.868Z,11.85
2019-01-05T18:53:20.516Z,7.00
2019-01-05T18:54:53.734Z,7.37
2019-01-05T18:56:18.789Z,7.53
2019-01-05T18:57:48.905Z,6.00
2019-01-05T18:59:13.251Z,6.87
2019-01-05T19:00:39.262Z,7.25
2019-01-05T19:02:13.024Z,7.97
2019-01-05T19:03:54.433Z,7.25
2019-01-05T19:05:30.320Z,7.00
2019-01-05T19:07:13.791Z,7.47
2019-01-05T19:08:40.639Z,7.22
2019-01-05T19:10:21.303Z,7.30
2019-01-05T19:12:10.646Z,9.28
2019-01-05T19:13:49.556Z,11.78
2019-01-05T19:15:26.535Z,12.35
2019-01-05T19:17:00.678Z,7.55
2019-01-05T19:18:41.989Z,9.45
2019-01-05T19:20:17.541Z,6.78
2019-01-05T19:22:12.665Z,7.10
2019-01-05T19:23:46.052Z,11.93
2019-01-05T19:25:30.126Z,7.47
2019-01-05T19:27:14.938Z,7.28
2019-01-05T19:29:12.773Z,8.08
2019-01-05T19:30:45.945Z,6.97
2019-01-05T19:32:35.656Z,6.90
2019-01-05T19:34:08.976Z,7.60
2019-01-05T19:35:50.427Z,8.15
2019-01-05T19:37:31.873Z,15.35
2019-01-05T19:39:18.224Z,8.10
2019-01-05T19:41:11.560Z,9.38
2019-01-05T19:43:05.233Z,13.90
2019-01-05T19:44:52.889Z,9.33
2019-01-05T19:46:21.596Z,8.03
2019-01-05T19:47:56.811Z,9.00
2019-01-05T19:49:24.861Z,19.10
2019-01-05T19:50:56.011Z,13.93
2019-01-05T19:52:42.295Z,9.60
2019-01-05T19:54:20.689Z,8.43
2019-01-05T19:55:50.434Z,6.90
2019-01-05T19:57:15.242Z,10.70
2019-01-05T19:58:38.304Z,9.73
2019-01-05T20:00:03.706Z,8.23
2019-01-05T20:01:28.171Z,8.30
2019-01-05T20:02:51.363Z,9.20
2019-01-05T20:04:15.421Z,9.05
2019-01-05T20:05:46.772Z,8.58
2019-01-05T20:07:13.951Z,10.60
2019-01-05T20:08:47.270Z,8.55
2019-01-05T20:10:13.303Z,8.70
2019-01-05T20:11:41.934Z,7.85
2019-01-05T20:13:04.822Z,9.10
2019-01-05T20:14:47.881Z,8.78
2019-01-05T20:16:22.499Z,8.33
2019-01-05T20:18:14.749Z,10.20
2019-01-05T20:19:48.174Z,9.90
2019-01-05T20:21:19.746Z,9.60
2019-01-05T20:22:43.617Z,8.33
2019-01-05T20:24:23.640Z,8.60
2019-01-05T20:26:02.899Z,9.98
2019-01-05T20:27:38.886Z,10.32
2019-01-05T20:29:05.499Z,10.05
2019-01-05T20:30:28.858Z,11.73
2019-01-05T20:32:02.552Z,13.18
2019-01-05T20:33:27.274Z,9.15
2019-01-05T20:34:52.981Z,10.45
2019-01-05T20:36:28.677Z,15.32
2019-01-05T20:37:54.230Z,11.75
2019-01-05T20:39:16.945Z,10.30
2019-01-05T20:40:54.331Z,12.93
2019-01-05T20:42:23.427Z,10.05
2019-01-05T20:44:00.958Z,13.75
2019-01-05T20:45:42.168Z,11.15
2019-01-05T20:47:04.650Z,11.22
2019-01-05T20:48:47.272Z,9.30
2019-01-05T20:50:12.333Z,9.33
2019-01-05T20:51:34.964Z,9.50
2019-01-05T20:53:00.352Z,10.55
2019-01-05T20:54:27.986Z,18.02
2019-01-05T20:55:55.942Z,15.70
2019-01-05T20:57:19.859Z,10.55
2019-01-05T20:58:45.812Z,13.28
2019-01-05T21:00:29.476Z,11.95
2019-01-05T21:01:55.216Z,9.55
2019-01-05T21:03:24.750Z,10.25
2019-01-05T21:04:55.706Z,9.90
2019-01-05T21:06:18.163Z,8.40
2019-01-05T21:07:42.448Z,11.28
2019-01-05T21:09:08.153Z,10.50
2019-01-05T21:10:40.965Z,9.60
2019-01-05T21:12:15.281Z,10.00
2019-01-05T21:13:37.823Z,10.88
2019-01-05T21:15:03.928Z,10.45
2019-01-05T21:16:36.995Z,10.23
2019-01-05T21:18:09.052Z,16.42
2019-01-05T21:19:48.902Z,22.70
2019-01-05T21:21:15.042Z,59.20
2019-01-05T21:22:51.496Z,50.25
2019-01-05T21:24:14.294Z,37.20
2019-01-05T21:26:00.264Z,63.95
2019-01-05T21:27:23.833Z,14.78
2019-01-05T21:28:48.844Z,17.55
2019-01-05T21:30:23.957Z,13.98
2019-01-05T21:32:07.879Z,17.25
2019-01-05T21:33:29.033Z,10.45
2019-01-05T21:35:07.772Z,9.05
2019-01-05T21:36:40.685Z,10.08
2019-01-05T21:38:06.751Z,12.50
2019-01-05T21:39:32.188Z,10.70
2019-01-05T21:40:55.211Z,32.38
2019-01-05T21:42:37.616Z,13.88
2019-01-05T21:44:07.634Z,10.25
2019-01-05T21:45:38.372Z,8.98
2019-01-05T21:47:09.880Z,9.05
2019-01-05T21:48:48.059Z,10.00
2019-01-05T21:50:19.989Z,9.48
2019-01-05T21:51:47.540Z,9.35
2019-01-05T21:53:32.715Z,10.58
2019-01-05T21:55:13.434Z,9.43
2019-01-05T21:56:48.548Z,10.53
2019-01-05T21:58:13.767Z,9.53
2019-01-05T21:59:41.132Z,9.53
2019-01-05T22:01:08.431Z,9.00
2019-01-05T22:02:38.086Z,9.83
2019-01-05T22:04:07.839Z,11.10
2019-01-05T22:05:34.591Z,16.32
2019-01-05T22:07:18.848Z,15.60
2019-01-05T22:08:47.082Z,15.20
2019-01-05T22:10:10.685Z,16.05
2019-01-05T22:11:32.421Z,11.63
2019-01-05T22:12:57.056Z,9.25
2019-01-05T22:14:28.288Z,8.90
2019-01-05T22:16:07.957Z,8.93
2019-01-05T22:17:35.019Z,8.70
2019-01-05T22:19:09.246Z,9.53
2019-01-05T22:20:48.557Z,8.60
2019-01-05T22:22:22.177Z,9.95
2019-01-05T22:23:57.042Z,10.28
2019-01-05T22:25:19.864Z,8.85
2019-01-05T22:26:48.115Z,9.08
2019-01-05T22:28:15.745Z,7.97
2019-01-05T22:29:46.694Z,7.42
2019-01-05T22:31:24.317Z,7.22
2019-01-05T22:32:51.282Z,8.03
2019-01-05T22:34:16.480Z,7.87
2019-01-05T22:35:54.735Z,7.20
2019-01-05T22:37:38.713Z,6.87
2019-01-05T22:39:14.441Z,6.75
2019-01-05T22:40:37.483Z,8.10
2019-01-05T22:42:06.708Z,7.25
2019-01-05T22:43:29.558Z,6.83
2019-01-05T22:44:55.924Z,7.17
2019-01-05T22:46:28.729Z,9.38
2019-01-05T22:47:53.432Z,7.72
2019-01-05T22:49:15.782Z,6.35
2019-01-05T22:50:46.022Z,6.45
2019-01-05T22:52:11.033Z,7.55
2019-01-05T22:53:36.697Z,6.95
2019-01-05T22:54:57.941Z,6.60
2019-01-05T22:56:20.809Z,6.50
2019-01-05T22:57:50.379Z,6.10
2019-01-05T22:59:31.939Z,6.03
2019-01-05T23:00:56.225Z,7.17
2019-01-05T23:02:22.892Z,7.35